Time;durP1;ratioP1;P1;durP2;ratioP2;P2;SDS_P1;SDS_P2;PMS_P1;PMS_P2;Temp;Humidity;BMP_temperature;BMP_pressure;BME280_temperature;BME280_humidity;BME280_pressure;Samples;Min_cycle;Max_cycle;Signal;HPM_P1;HPM_P2
2022/09/22 00:01:21;;;;;;;6.27;3.80;;;8.30;99.90;;;;;;4981600;28;20217;-65
2022/09/22 00:03:53;;;;;;;10.93;4.20;;;8.30;99.90;;;;;;4989719;28;20208;-65
2022/09/22 00:06:25;;;;;;;6.10;2.90;;;8.30;99.90;;;;;;4982220;28;20762;-65
2022/09/22 00:08:54;;;;;;;5.63;3.13;;;8.30;99.90;;;;;;4990487;28;20687;-65
2022/09/22 00:11:34;;;;;;;6.80;3.50;;;8.20;99.90;;;;;;4990749;28;20190;-65
2022/09/22 00:14:08;;;;;;;6.07;3.60;;;8.20;56.00;;;;;;4975055;28;20230;-66
2022/09/22 00:16:47;;;;;;;6.80;3.93;;;8.10;99.90;;;;;;4970518;28;20194;-65
2022/09/22 00:19:26;;;;;;;6.37;3.60;;;8.00;99.90;;;;;;4971851;28;20269;-65
2022/09/22 00:21:53;;;;;;;7.20;4.07;;;8.00;99.90;;;;;;4953803;28;20745;-65
2022/09/22 00:24:22;;;;;;;7.07;3.43;;;7.90;99.90;;;;;;4971399;28;20187;-64
2022/09/22 00:26:50;;;;;;;8.47;3.80;;;7.90;99.90;;;;;;4986077;28;20214;-65
2022/09/22 00:29:17;;;;;;;8.00;3.90;;;8.00;99.90;;;;;;4960830;28;20206;-66
2022/09/22 00:31:44;;;;;;;7.57;3.83;;;8.00;99.90;;;;;;4985114;28;20199;-65
2022/09/22 00:34:17;;;;;;;7.93;3.53;;;7.90;99.90;;;;;;4985755;28;20198;-65
2022/09/22 00:36:45;;;;;;;13.13;3.70;;;7.90;99.90;;;;;;4952987;28;20258;-66
2022/09/22 00:39:14;;;;;;;4.43;3.37;;;7.90;99.90;;;;;;4969460;28;20202;-66
2022/09/22 00:41:43;;;;;;;4.53;3.77;;;7.80;99.90;;;;;;4959705;28;20571;-65
2022/09/22 00:44:29;;;;;;;5.30;3.50;;;7.80;99.90;;;;;;4967877;28;20653;-64
2022/09/22 00:46:58;;;;;;;7.17;3.80;;;7.80;99.90;;;;;;4971131;28;20190;-64
2022/09/22 00:49:51;;;;;;;8.73;4.17;;;7.80;99.90;;;;;;4969961;28;20206;-63
2022/09/22 00:52:24;;;;;;;9.17;4.13;;;7.80;99.90;;;;;;4957272;28;20213;-64
2022/09/22 00:54:55;;;;;;;8.23;4.30;;;7.80;99.90;;;;;;4970186;28;20195;-64
2022/09/22 00:57:27;;;;;;;9.17;3.87;;;7.90;99.90;;;;;;4945587;28;20194;-63
2022/09/22 00:59:54;;;;;;;5.00;3.70;;;7.80;99.90;;;;;;4951652;28;20194;-65
2022/09/22 01:02:22;;;;;;;6.87;3.80;;;7.80;99.90;;;;;;4969404;28;20282;-65
2022/09/22 01:04:50;;;;;;;5.50;4.13;;;7.80;99.90;;;;;;4959854;28;20206;-64
2022/09/22 01:07:24;;;;;;;8.53;4.97;;;7.80;99.90;;;;;;4968275;28;21024;-64
2022/09/22 01:09:51;;;;;;;6.13;4.83;;;7.70;99.90;;;;;;4969930;28;20213;-64
2022/09/22 01:12:18;;;;;;;8.50;4.87;;;7.60;99.90;;;;;;4969684;28;20230;-64
2022/09/22 01:15:01;;;;;;;8.47;4.83;;;7.60;1.00;;;;;;4970053;28;20305;-65
2022/09/22 01:17:30;;;;;;;5.67;4.67;;;7.60;1.00;;;;;;4970046;28;20695;-65
2022/09/22 01:20:08;;;;;;;8.87;5.53;;;7.60;1.00;;;;;;4969619;28;20202;-66
2022/09/22 01:23:14;;;;;;;9.10;5.30;;;7.50;1.00;;;;;;4967653;28;20265;-65
2022/09/22 01:25:46;;;;;;;5.30;4.80;;;7.50;1.00;;;;;;4967928;28;20748;-65
2022/09/22 01:28:32;;;;;;;7.10;5.30;;;7.40;1.00;;;;;;4983010;28;20292;-68
2022/09/22 01:31:21;;;;;;;9.10;5.07;;;7.50;1.00;;;;;;4942692;28;20225;-70
2022/09/22 01:34:01;;;;;;;8.10;5.00;;;7.50;1.00;;;;;;4966671;28;20565;-66
2022/09/22 01:36:56;;;;;;;6.83;4.57;;;7.40;1.00;;;;;;4983160;28;20210;-68
2022/09/22 01:39:36;;;;;;;5.23;4.70;;;7.40;1.00;;;;;;4966676;28;20280;-67
2022/09/22 01:42:06;;;;;;;6.77;4.90;;;7.50;1.00;;;;;;4982204;28;20560;-67
2022/09/22 01:44:44;;;;;;;4.53;4.13;;;7.50;1.00;;;;;;4967293;28;20193;-67
2022/09/22 01:47:22;;;;;;;6.63;4.80;;;7.50;1.00;;;;;;4949261;28;20221;-68
2022/09/22 01:50:04;;;;;;;7.47;4.60;;;7.40;1.00;;;;;;4965078;28;20266;-66
2022/09/22 01:52:34;;;;;;;6.27;4.60;;;7.30;1.00;;;;;;4967626;28;20198;-69
2022/09/22 01:55:22;;;;;;;5.43;4.90;;;7.40;1.00;;;;;;4950506;28;20195;-70
2022/09/22 01:58:07;;;;;;;7.93;4.77;;;7.30;1.00;;;;;;4949199;28;20209;-66
2022/09/22 02:00:38;;;;;;;8.80;4.97;;;7.40;1.00;;;;;;4965843;28;20191;-67
2022/09/22 02:03:11;;;;;;;5.73;4.77;;;7.50;1.00;;;;;;4967316;28;20680;-67
2022/09/22 02:05:48;;;;;;;7.03;4.50;;;7.50;1.00;;;;;;4967734;28;20190;-69
2022/09/22 02:08:30;;;;;;;6.53;4.37;;;7.50;1.00;;;;;;4967977;28;20194;-68
2022/09/22 02:11:06;;;;;;;9.30;4.93;;;7.40;1.00;;;;;;4968952;28;20198;-69
2022/09/22 02:13:33;;;;;;;8.77;4.63;;;7.40;1.00;;;;;;4968702;28;20247;-70
2022/09/22 02:16:00;;;;;;;7.00;5.00;;;7.40;1.00;;;;;;4959262;28;20198;-68
2022/09/22 02:18:46;;;;;;;12.90;8.97;;;7.40;1.00;;;;;;4961044;28;20665;-67
2022/09/22 02:21:14;;;;;;;9.10;7.30;;;7.40;1.00;;;;;;4966126;28;20261;-67
2022/09/22 02:23:43;;;;;;;7.23;6.53;;;7.40;1.00;;;;;;4952659;28;20202;-66
2022/09/22 02:26:15;;;;;;;6.50;4.80;;;7.40;1.00;;;;;;4964399;28;20262;-70
2022/09/22 02:28:43;;;;;;;8.07;4.63;;;7.40;99.90;;;;;;4966242;28;20752;-62
2022/09/22 02:31:12;;;;;;;7.87;5.43;;;7.30;99.90;;;;;;4967394;28;20202;-62
2022/09/22 02:33:48;;;;;;;5.73;4.40;;;7.30;99.90;;;;;;4969923;28;20209;-62
2022/09/22 02:36:39;;;;;;;7.23;4.73;;;7.30;99.90;;;;;;4968583;28;20195;-62
2022/09/22 02:39:30;;;;;;;7.30;5.50;;;7.20;99.90;;;;;;4966854;28;20208;-61
2022/09/22 02:42:15;;;;;;;7.03;4.40;;;7.20;99.90;;;;;;4966888;28;20218;-62
2022/09/22 02:45:00;;;;;;;8.47;5.63;;;7.10;99.90;;;;;;4935451;28;20206;-62
2022/09/22 02:47:41;;;;;;;9.13;5.40;;;7.10;1.00;;;;;;4967661;28;20202;-61
2022/09/22 02:50:11;;;;;;;11.10;5.30;;;7.00;1.00;;;;;;4967153;28;20213;-63
2022/09/22 02:52:38;;;;;;;8.60;5.17;;;7.00;1.00;;;;;;4967071;28;20206;-62
2022/09/22 02:55:08;;;;;;;7.47;4.87;;;7.00;1.00;;;;;;4950266;28;20197;-62
2022/09/22 02:57:35;;;;;;;7.13;5.27;;;7.00;1.00;;;;;;4966924;28;20293;-60
2022/09/22 03:00:04;;;;;;;6.77;5.67;;;7.00;1.00;;;;;;4965440;28;20285;-62
2022/09/22 03:02:31;;;;;;;5.80;5.00;;;7.00;1.00;;;;;;4967213;28;20254;-62
2022/09/22 03:04:58;;;;;;;7.70;5.83;;;7.00;1.00;;;;;;4949196;28;20293;-62
2022/09/22 03:07:25;;;;;;;8.57;5.47;;;6.90;1.00;;;;;;4984689;28;20658;-60
2022/09/22 03:09:52;;;;;;;7.60;5.13;;;6.90;1.00;;;;;;4953852;28;20198;-61
2022/09/22 03:12:19;;;;;;;8.37;5.10;;;6.90;1.00;;;;;;4971410;28;20236;-61
2022/09/22 03:14:46;;;;;;;7.43;5.10;;;6.90;1.00;;;;;;4964045;28;20750;-61
2022/09/22 03:17:12;;;;;;;9.67;4.83;;;6.90;1.00;;;;;;4962111;28;20237;-62
2022/09/22 03:19:39;;;;;;;7.70;5.27;;;6.80;1.00;;;;;;4970777;28;20290;-61
2022/09/22 03:22:06;;;;;;;8.63;5.40;;;6.80;1.00;;;;;;4953120;28;20232;-61
2022/09/22 03:24:33;;;;;;;7.90;5.10;;;6.80;1.00;;;;;;4985674;28;20194;-63
2022/09/22 03:27:00;;;;;;;9.90;5.23;;;6.80;1.00;;;;;;4954009;28;20683;-61
2022/09/22 03:29:27;;;;;;;6.00;5.20;;;6.80;1.00;;;;;;4970981;28;20285;-60
2022/09/22 03:31:54;;;;;;;11.63;8.90;;;6.70;1.00;;;;;;4960426;28;20210;-62
2022/09/22 03:34:21;;;;;;;12.53;7.43;;;6.70;1.00;;;;;;4971323;28;20623;-61
2022/09/22 03:36:48;;;;;;;7.77;5.20;;;6.80;1.00;;;;;;4968723;28;20297;-61
2022/09/22 03:39:15;;;;;;;7.70;4.90;;;6.90;1.00;;;;;;4946088;28;20233;-62
2022/09/22 03:41:42;;;;;;;9.60;4.97;;;6.80;1.00;;;;;;4971108;28;20252;-67
2022/09/22 03:44:09;;;;;;;9.07;5.43;;;6.70;1.00;;;;;;4951941;28;20198;-62
2022/09/22 03:46:36;;;;;;;7.23;4.77;;;6.50;1.00;;;;;;4969846;28;20191;-61
2022/09/22 03:49:03;;;;;;;6.83;5.20;;;6.50;1.00;;;;;;4969274;28;20186;-61
2022/09/22 03:51:30;;;;;;;6.80;5.40;;;6.50;1.00;;;;;;4952706;28;20206;-63
2022/09/22 03:53:57;;;;;;;6.03;4.77;;;6.50;1.00;;;;;;4970478;28;20194;-61
2022/09/22 03:56:24;;;;;;;10.83;5.43;;;6.50;1.00;;;;;;4969895;28;20305;-61
2022/09/22 03:58:51;;;;;;;14.07;5.07;;;6.40;1.00;;;;;;4963238;28;20707;-61
2022/09/22 04:01:18;;;;;;;6.13;5.27;;;6.40;1.00;;;;;;4965993;28;20864;-62
2022/09/22 04:03:45;;;;;;;7.17;4.90;;;6.40;1.00;;;;;;4986097;28;20319;-63
2022/09/22 04:06:13;;;;;;;7.47;5.73;;;6.40;1.00;;;;;;4969514;28;20194;-62
2022/09/22 04:08:40;;;;;;;11.27;5.20;;;6.30;1.00;;;;;;4962074;28;20206;-61
2022/09/22 04:11:07;;;;;;;10.20;5.80;;;6.30;1.00;;;;;;4942902;28;20202;-60
2022/09/22 04:13:34;;;;;;;6.63;5.30;;;6.10;1.00;;;;;;4963366;28;20233;-61
2022/09/22 04:16:03;;;;;;;7.37;5.60;;;6.20;1.00;;;;;;4971803;28;20692;-62
2022/09/22 04:18:30;;;;;;;5.30;4.80;;;6.10;1.00;;;;;;4971107;28;20204;-62
2022/09/22 04:20:58;;;;;;;8.37;5.10;;;6.20;1.00;;;;;;4969593;28;20197;-62
2022/09/22 04:23:25;;;;;;;9.73;5.70;;;6.10;1.00;;;;;;4988673;28;20225;-61
2022/09/22 04:25:52;;;;;;;6.23;5.53;;;6.00;1.00;;;;;;4989593;28;20731;-61
2022/09/22 04:28:19;;;;;;;6.73;6.10;;;6.00;1.00;;;;;;4987272;28;20689;-63
2022/09/22 04:30:47;;;;;;;8.00;6.03;;;5.80;2.90;;;;;;4978740;28;20202;-64
2022/09/22 04:33:14;;;;;;;6.27;5.50;;;5.80;1.00;;;;;;4980195;28;20205;-62
2022/09/22 04:35:42;;;;;;;6.70;5.67;;;5.80;1.00;;;;;;4990009;28;20201;-62
2022/09/22 04:38:09;;;;;;;6.20;5.60;;;5.70;1.00;;;;;;4963733;28;20198;-61
2022/09/22 04:40:36;;;;;;;8.37;6.00;;;5.80;16.30;;;;;;4988954;28;20193;-63
2022/09/22 04:43:03;;;;;;;7.47;6.20;;;5.70;1.00;;;;;;4989706;28;20225;-63
2022/09/22 04:45:30;;;;;;;10.43;5.87;;;5.90;1.00;;;;;;4989402;28;20201;-62
2022/09/22 04:48:03;;;;;;;8.67;6.57;;;5.80;1.00;;;;;;5002446;28;20213;-61
2022/09/22 04:50:30;;;;;;;9.47;7.40;;;5.70;91.80;;;;;;4989092;28;20747;-61
2022/09/22 04:53:04;;;;;;;10.70;7.13;;;5.70;99.90;;;;;;4988944;28;20228;-60
2022/09/22 04:55:31;;;;;;;8.07;6.97;;;5.60;1.00;;;;;;4988439;28;20202;-60
2022/09/22 04:57:58;;;;;;;8.43;7.00;;;5.60;1.00;;;;;;4969483;28;20210;-62
2022/09/22 05:00:27;;;;;;;9.67;7.60;;;5.50;1.00;;;;;;4987785;28;20228;-62
2022/09/22 05:02:54;;;;;;;7.67;6.83;;;5.60;1.00;;;;;;4988709;28;20226;-63
2022/09/22 05:05:23;;;;;;;9.67;7.83;;;5.50;1.00;;;;;;4987524;28;20198;-61
2022/09/22 05:07:54;;;;;;;15.47;9.10;;;5.50;1.00;;;;;;4984535;28;20198;-61
2022/09/22 05:10:29;;;;;;;10.03;9.03;;;5.40;1.00;;;;;;4988375;28;20551;-63
2022/09/22 05:12:57;;;;;;;12.43;8.50;;;5.40;1.00;;;;;;4981603;28;20285;-61
2022/09/22 05:15:25;;;;;;;10.33;8.80;;;5.40;1.00;;;;;;4950009;28;20293;-63
2022/09/22 05:17:53;;;;;;;10.87;8.00;;;5.50;1.00;;;;;;4968226;28;20285;-62
2022/09/22 05:20:21;;;;;;;9.67;7.63;;;5.40;1.00;;;;;;4980396;28;20301;-64
2022/09/22 05:22:48;;;;;;;8.60;7.70;;;5.50;1.00;;;;;;4950236;28;20690;-62
2022/09/22 05:25:17;;;;;;;10.27;6.90;;;5.60;1.00;;;;;;4968463;28;20198;-60
2022/09/22 05:27:52;;;;;;;8.53;7.60;;;5.70;1.00;;;;;;4968865;28;20217;-61
2022/09/22 05:30:22;;;;;;;7.30;6.60;;;5.80;99.90;;;;;;4967627;28;20654;-63
2022/09/22 05:32:50;;;;;;;10.70;6.27;;;5.90;99.90;;;;;;4983670;28;20483;-63
2022/09/22 05:35:20;;;;;;;10.17;6.30;;;5.90;1.00;;;;;;4951431;28;20190;-61
2022/09/22 05:37:49;;;;;;;9.30;6.63;;;5.90;10.20;;;;;;4983132;28;20688;-62
2022/09/22 05:40:17;;;;;;;10.10;6.93;;;6.10;14.90;;;;;;4967134;28;22807;-61
2022/09/22 05:42:45;;;;;;;7.60;6.83;;;6.10;1.00;;;;;;4966306;28;20218;-62
2022/09/22 05:45:17;;;;;;;10.07;6.93;;;6.20;1.00;;;;;;4966935;28;20751;-61
2022/09/22 05:47:45;;;;;;;9.10;6.23;;;6.30;1.00;;;;;;4968794;28;20202;-62
2022/09/22 05:50:14;;;;;;;9.50;6.53;;;6.30;1.00;;;;;;4947362;28;20207;-61
2022/09/22 05:52:41;;;;;;;9.20;7.13;;;6.70;1.00;;;;;;4943842;28;20225;-62
2022/09/22 05:55:09;;;;;;;6.57;5.13;;;8.20;1.00;;;;;;4966831;28;20205;-62
2022/09/22 05:57:36;;;;;;;6.17;4.33;;;10.40;1.00;;;;;;4949944;28;20209;-61
2022/09/22 06:00:05;;;;;;;6.27;3.67;;;12.10;1.00;;;;;;4982507;28;20222;-59
2022/09/22 06:02:37;;;;;;;6.30;3.53;;;13.50;99.90;;;;;;4967140;28;20210;-62
2022/09/22 06:05:04;;;;;;;8.63;3.47;;;14.00;99.90;;;;;;4966420;28;20250;-61
2022/09/22 06:07:31;;;;;;;6.97;4.00;;;14.50;99.90;;;;;;4955987;28;20208;-62
2022/09/22 06:09:58;;;;;;;5.60;3.13;;;14.70;99.90;;;;;;4969253;28;20190;-62
2022/09/22 06:12:25;;;;;;;5.93;3.60;;;15.80;18.90;;;;;;4963616;28;20218;-62
2022/09/22 06:14:52;;;;;;;8.17;3.40;;;16.20;1.00;;;;;;4950601;28;20229;-60
2022/09/22 06:17:18;;;;;;;3.55;3.25;;;16.70;1.00;;;;;;4965871;28;20206;-62
2022/09/22 06:19:49;;;;;;;6.90;3.33;;;17.20;1.00;;;;;;4966545;28;20563;-61
2022/09/22 06:22:16;;;;;;;9.18;3.08;;;17.80;1.00;;;;;;4965942;28;20225;-63
2022/09/22 06:24:43;;;;;;;5.03;3.50;;;18.00;1.00;;;;;;4967490;28;20213;-61
2022/09/22 06:27:10;;;;;;;8.02;3.42;;;18.60;1.00;;;;;;4944855;28;20290;-61
2022/09/22 06:29:37;;;;;;;4.45;3.67;;;19.00;1.00;;;;;;4943198;28;20210;-62
2022/09/22 06:32:06;;;;;;;6.13;3.67;;;18.60;1.00;;;;;;4965935;28;20288;-63
2022/09/22 06:34:37;;;;;;;6.70;3.83;;;18.60;1.00;;;;;;4966364;28;20203;-62
2022/09/22 06:37:07;;;;;;;8.00;3.75;;;18.30;1.00;;;;;;4967548;28;20190;-62
2022/09/22 06:39:36;;;;;;;6.22;3.38;;;18.50;1.00;;;;;;4968069;28;20208;-63
2022/09/22 06:42:04;;;;;;;4.22;3.33;;;18.60;1.00;;;;;;4966944;28;20224;-64
2022/09/22 06:44:32;;;;;;;5.45;3.30;;;19.40;1.00;;;;;;4958914;28;20197;-63
2022/09/22 06:47:04;;;;;;;6.18;3.50;;;19.60;1.00;;;;;;4966033;28;20281;-63
2022/09/22 06:49:31;;;;;;;6.30;3.28;;;20.20;1.00;;;;;;4965194;28;20269;-62
2022/09/22 06:51:58;;;;;;;10.30;6.90;;;19.70;3.20;;;;;;4956963;28;20249;-61
2022/09/22 06:54:25;;;;;;;12.32;10.68;;;20.80;25.90;;;;;;4954564;28;20686;-62
2022/09/22 06:56:52;;;;;;;9.30;6.40;;;22.00;25.80;;;;;;4949711;28;20197;-62
2022/09/22 06:59:19;;;;;;;3.45;2.38;;;23.00;48.40;;;;;;4982226;28;20740;-60
2022/09/22 07:01:47;;;;;;;20.25;16.58;;;22.80;51.50;;;;;;4966308;28;20232;-63
2022/09/22 07:04:14;;;;;;;8.07;3.33;;;22.80;53.10;;;;;;4965570;28;20254;-65
2022/09/22 07:06:42;;;;;;;8.18;5.50;;;23.90;48.70;;;;;;4965989;28;20202;-64
2022/09/22 07:09:09;;;;;;;5.15;4.03;;;23.90;48.40;;;;;;4967657;28;20225;-63
2022/09/22 07:11:36;;;;;;;11.82;6.88;;;24.80;47.70;;;;;;4965789;28;20697;-62
2022/09/22 07:14:07;;;;;;;8.23;4.88;;;26.20;43.30;;;;;;4964172;28;20240;-62
2022/09/22 07:16:34;;;;;;;8.70;4.45;;;27.40;38.80;;;;;;4969071;28;20202;-62
2022/09/22 07:19:03;;;;;;;6.88;3.40;;;27.70;36.50;;;;;;4983116;28;20202;-62
2022/09/22 07:21:36;;;;;;;4.55;3.13;;;27.90;32.10;;;;;;4983584;28;20690;-63
2022/09/22 07:27:24;;;;;;;3.90;2.38;;;25.40;28.10;;;;;;4984185;28;20201;-63
2022/09/22 07:29:53;;;;;;;3.65;2.47;;;22.90;21.10;;;;;;4983745;28;20194;-62
2022/09/22 07:32:20;;;;;;;4.22;2.30;;;22.00;21.00;;;;;;4984628;28;20221;-63
2022/09/22 07:34:48;;;;;;;2.78;2.22;;;21.20;22.80;;;;;;4987723;28;20556;-63
2022/09/22 07:37:15;;;;;;;5.63;2.45;;;21.50;22.30;;;;;;4969296;28;20289;-62
2022/09/22 07:39:44;;;;;;;4.65;2.30;;;21.20;18.20;;;;;;4998231;28;20201;-62
2022/09/22 07:42:11;;;;;;;4.75;2.42;;;21.40;22.20;;;;;;4999022;28;20750;-62
2022/09/22 07:50:12;;;;;;;6.95;2.28;;;23.00;21.40;;;;;;5003267;28;20318;-61
2022/09/22 07:52:38;;;;;;;6.40;2.50;;;23.30;19.90;;;;;;4988365;28;20569;-62
2022/09/22 07:55:06;;;;;;;4.22;2.20;;;22.70;17.00;;;;;;4976412;28;20568;-62
2022/09/22 07:57:33;;;;;;;6.50;2.28;;;22.40;17.70;;;;;;5009572;28;20210;-62
2022/09/22 08:00:00;;;;;;;4.03;2.08;;;23.10;22.10;;;;;;4976969;28;20665;-62
2022/09/22 08:02:27;;;;;;;4.63;2.30;;;23.30;17.00;;;;;;4987055;28;20213;-62
2022/09/22 08:05:01;;;;;;;4.35;2.35;;;24.30;19.70;;;;;;4971213;28;20194;-62
2022/09/22 08:07:31;;;;;;;2.53;1.95;;;24.20;20.30;;;;;;5005515;28;20188;-60
2022/09/22 08:09:58;;;;;;;7.18;2.38;;;24.50;19.10;;;;;;4990898;28;20190;-61
2022/09/22 08:12:25;;;;;;;4.95;2.10;;;25.20;21.30;;;;;;4985154;28;20227;-64
2022/09/22 08:14:52;;;;;;;4.82;2.30;;;23.50;12.60;;;;;;4971699;28;20202;-60
2022/09/22 08:17:20;;;;;;;4.20;1.92;;;24.40;16.10;;;;;;4953699;28;20202;-62
2022/09/22 08:19:47;;;;;;;3.92;1.83;;;28.70;23.80;;;;;;4981246;28;20224;-62
2022/09/22 08:22:14;;;;;;;4.88;1.80;;;30.80;22.20;;;;;;4961923;28;20206;-62
2022/09/22 08:24:43;;;;;;;3.38;2.13;;;32.50;16.60;;;;;;4937967;28;20674;-63
2022/09/22 08:27:10;;;;;;;4.38;2.20;;;32.40;17.30;;;;;;4983068;28;20216;-67
2022/09/22 08:29:36;;;;;;;4.15;2.08;;;29.90;7.20;;;;;;4957696;28;20572;-63
2022/09/22 08:32:03;;;;;;;4.80;2.30;;;27.80;6.90;;;;;;4952020;28;20202;-63
2022/09/22 08:34:30;;;;;;;3.92;2.03;;;26.30;8.10;;;;;;4968557;28;20309;-62
2022/09/22 08:36:57;;;;;;;7.20;3.15;;;26.50;9.70;;;;;;4953009;28;20301;-63
2022/09/22 08:39:24;;;;;;;6.18;2.45;;;31.80;14.50;;;;;;4970872;28;20198;-63
2022/09/22 08:42:09;;;;;;;5.00;3.58;;;33.30;11.90;;;;;;4969588;28;20198;-63
2022/09/22 08:44:48;;;;;;;2.90;2.05;;;34.00;10.40;;;;;;4953626;28;20193;-63
2022/09/22 08:51:50;;;;;;;3.08;2.00;;;34.60;6.90;;;;;;4969887;28;20186;-62
2022/09/22 08:53:21;;;;;;;5.18;3.13;;;28.20;7.40;;;;;;4970021;28;20202;-63
2022/09/22 08:56:05;;;;;;;4.22;2.63;;;32.10;8.90;;;;;;4968437;28;20557;-63
2022/09/22 08:59:01;;;;;;;5.30;2.20;;;33.70;9.80;;;;;;4970235;28;20225;-62
2022/09/22 09:01:51;;;;;;;4.85;2.60;;;32.00;1.00;;;;;;4947589;28;20238;-63
2022/09/22 09:04:21;;;;;;;10.43;3.80;;;30.20;4.10;;;;;;4968123;28;20837;-62
2022/09/22 09:07:02;;;;;;;6.10;3.10;;;31.10;5.60;;;;;;4983977;28;20293;-63
2022/09/22 09:09:32;;;;;;;4.82;3.58;;;31.30;6.20;;;;;;4983726;28;20202;-62
2022/09/22 09:12:19;;;;;;;3.22;2.17;;;33.60;6.20;;;;;;4949475;28;20230;-62
2022/09/22 09:15:12;;;;;;;4.72;2.83;;;34.00;1.00;;;;;;4959040;28;20583;-62
2022/09/22 09:17:43;;;;;;;4.10;1.88;;;33.40;6.60;;;;;;4976450;28;20198;-62
2022/09/22 09:20:20;;;;;;;5.15;2.08;;;36.10;3.20;;;;;;4976185;28;20199;-65
2022/09/22 09:22:55;;;;;;;7.82;2.83;;;35.10;1.00;;;;;;4978249;28;20205;-63
2022/09/22 09:25:38;;;;;;;4.35;2.35;;;33.20;3.80;;;;;;4976425;28;20208;-62
2022/09/22 09:28:17;;;;;;;4.10;2.25;;;33.50;1.00;;;;;;4992766;28;20200;-64
2022/09/22 09:30:50;;;;;;;4.68;2.35;;;33.40;1.00;;;;;;4969535;28;20200;-63
2022/09/22 09:33:43;;;;;;;7.03;2.70;;;36.90;2.90;;;;;;4975421;28;20615;-62
2022/09/22 09:36:21;;;;;;;3.05;2.17;;;39.50;1.00;;;;;;4964009;28;20820;-63
2022/09/22 09:38:52;;;;;;;4.85;2.45;;;41.50;1.00;;;;;;4977030;28;20193;-63
2022/09/22 09:41:34;;;;;;;2.60;2.00;;;41.50;1.00;;;;;;4973888;28;20233;-63
2022/09/22 09:44:03;;;;;;;3.47;1.90;;;42.10;1.00;;;;;;4955645;28;20802;-64
2022/09/22 09:46:49;;;;;;;5.85;2.20;;;38.60;1.00;;;;;;4974785;28;20290;-62
2022/09/22 09:49:19;;;;;;;3.10;2.00;;;31.30;1.00;;;;;;4974244;28;20557;-69
2022/09/22 09:51:50;;;;;;;2.85;1.83;;;34.10;1.00;;;;;;4959429;28;20202;-63
2022/09/22 09:54:17;;;;;;;7.35;2.20;;;37.10;1.00;;;;;;4978100;28;20301;-63
2022/09/22 09:57:17;;;;;;;3.20;2.00;;;37.00;1.00;;;;;;4991503;28;20213;-62
2022/09/22 10:02:49;;;;;;;5.35;1.77;;;30.80;1.00;;;;;;4975110;28;20206;-62
2022/09/22 10:05:21;;;;;;;4.47;1.77;;;35.60;1.00;;;;;;4975660;28;20542;-62
2022/09/22 10:08:01;;;;;;;5.90;1.85;;;31.40;1.00;;;;;;4977470;28;20230;-64
2022/09/22 10:10:28;;;;;;;6.22;2.00;;;34.40;1.00;;;;;;4989447;28;22552;-63
2022/09/22 10:13:04;;;;;;;2.63;1.33;;;38.30;1.00;;;;;;4980197;28;20241;-62
2022/09/22 10:15:33;;;;;;;4.45;1.70;;;36.20;1.00;;;;;;4957831;28;20205;-63
2022/09/22 10:18:01;;;;;;;3.63;1.92;;;38.80;1.00;;;;;;4943530;28;20218;-64
2022/09/22 10:20:30;;;;;;;2.90;1.50;;;41.20;1.00;;;;;;4944052;28;20202;-64
2022/09/22 10:23:21;;;;;;;1.95;1.20;;;39.80;1.00;;;;;;4944281;28;20254;-63
2022/09/22 10:25:49;;;;;;;1.70;1.05;;;38.20;1.00;;;;;;4968410;28;20206;-62
2022/09/22 10:28:21;;;;;;;2.05;1.45;;;34.20;1.00;;;;;;4966570;28;20210;-62
2022/09/22 10:31:18;;;;;;;2.30;1.60;;;34.80;1.00;;;;;;4949990;28;20210;-62
2022/09/22 10:34:24;;;;;;;2.25;1.17;;;37.40;1.00;;;;;;4967526;28;20216;-62
2022/09/22 10:36:52;;;;;;;3.28;1.20;;;36.60;1.00;;;;;;4964928;28;20201;-62
2022/09/22 10:39:20;;;;;;;1.77;1.20;;;36.60;1.00;;;;;;4968752;28;20202;-64
2022/09/22 10:41:48;;;;;;;3.97;1.52;;;36.60;1.00;;;;;;4960583;28;20217;-63
2022/09/22 10:44:19;;;;;;;2.63;1.10;;;38.50;1.00;;;;;;4941221;28;20214;-63
2022/09/22 10:47:05;;;;;;;2.00;1.40;;;36.40;1.00;;;;;;4968643;28;20217;-60
2022/09/22 10:49:57;;;;;;;3.50;1.33;;;32.80;1.00;;;;;;4968584;28;20198;-63
2022/09/22 10:52:34;;;;;;;1.60;0.93;;;33.50;1.00;;;;;;4966006;28;20210;-63
2022/09/22 10:55:01;;;;;;;2.53;1.30;;;31.30;1.00;;;;;;4967812;28;20272;-60
2022/09/22 10:57:43;;;;;;;3.28;1.25;;;30.10;1.00;;;;;;4967803;28;20647;-62
2022/09/22 11:00:15;;;;;;;5.68;1.40;;;27.30;1.00;;;;;;4977254;28;20205;-65
2022/09/22 11:03:12;;;;;;;3.42;1.20;;;27.40;1.00;;;;;;4958718;28;20199;-61
2022/09/22 11:12:17;;;;;;;3.97;1.70;;;27.20;1.00;;;;;;4964048;28;20210;-62
2022/09/22 11:15:45;;;;;;;2.65;1.23;;;27.30;1.00;;;;;;4967701;28;20300;-61
2022/09/22 11:18:59;;;;;;;3.17;1.33;;;28.40;1.00;;;;;;4908758;29;20212;-61
2022/09/22 11:21:46;;;;;;;2.97;1.48;;;30.90;1.00;;;;;;4982253;28;20612;-62
2022/09/22 11:24:51;;;;;;;4.10;1.30;;;30.90;1.00;;;;;;4987203;28;20220;-63
2022/09/22 11:27:35;;;;;;;2.10;1.17;;;25.30;1.00;;;;;;5002020;28;20209;-61
2022/09/22 11:30:20;;;;;;;3.25;1.23;;;26.40;1.00;;;;;;4992192;28;20189;-61
2022/09/22 11:33:11;;;;;;;3.40;1.40;;;26.50;1.00;;;;;;4968486;28;20194;-62
2022/09/22 11:35:55;;;;;;;3.55;1.30;;;25.60;1.00;;;;;;4992208;28;20194;-62
2022/09/22 11:38:49;;;;;;;2.30;1.20;;;25.60;1.00;;;;;;4967706;28;20301;-64
2022/09/22 11:41:42;;;;;;;3.78;1.45;;;26.10;1.00;;;;;;4974287;28;20200;-63
2022/09/22 11:44:18;;;;;;;3.10;1.52;;;26.70;1.00;;;;;;4991152;28;20224;-62
2022/09/22 11:47:08;;;;;;;2.35;1.33;;;27.10;1.00;;;;;;4991572;28;20185;-63
2022/09/22 11:49:54;;;;;;;2.35;1.38;;;27.10;1.00;;;;;;4980416;28;20240;-62
2022/09/22 11:52:58;;;;;;;2.08;1.20;;;27.40;1.00;;;;;;4988890;28;20560;-66
2022/09/22 11:55:44;;;;;;;1.42;1.10;;;24.60;1.00;;;;;;4972553;28;20304;-64
2022/09/22 11:58:16;;;;;;;2.05;1.25;;;26.80;1.00;;;;;;4968221;28;20207;-62
2022/09/22 12:00:51;;;;;;;2.33;1.20;;;26.80;1.00;;;;;;4989499;28;20257;-61
2022/09/22 12:03:53;;;;;;;3.08;1.40;;;25.30;1.00;;;;;;4989433;28;20236;-60
2022/09/22 12:06:26;;;;;;;2.38;1.20;;;26.60;1.00;;;;;;4988651;28;20193;-60
2022/09/22 12:09:00;;;;;;;3.83;1.00;;;26.10;1.00;;;;;;4990040;28;20276;-62
2022/09/22 12:11:29;;;;;;;2.85;1.10;;;26.10;1.00;;;;;;4989834;28;20352;-61
2022/09/22 12:13:58;;;;;;;2.17;1.10;;;28.60;1.00;;;;;;4990916;28;20319;-61
2022/09/22 12:16:40;;;;;;;3.00;1.33;;;29.30;1.00;;;;;;4968935;28;20208;-61
2022/09/22 12:19:26;;;;;;;2.90;1.10;;;30.10;1.00;;;;;;4993491;28;20193;-62
2022/09/22 12:22:04;;;;;;;3.60;1.30;;;29.60;1.00;;;;;;4973231;28;20201;-62
2022/09/22 12:24:32;;;;;;;2.83;1.17;;;27.30;1.00;;;;;;4991324;28;20201;-61
2022/09/22 12:27:10;;;;;;;3.35;1.48;;;27.20;1.00;;;;;;4972849;28;20206;-60
2022/09/22 12:29:37;;;;;;;2.10;1.40;;;26.80;1.00;;;;;;4974679;28;20295;-62
2022/09/22 12:32:05;;;;;;;2.28;1.35;;;23.30;1.00;;;;;;4992235;28;20280;-62
2022/09/22 12:34:42;;;;;;;1.70;1.17;;;22.60;1.00;;;;;;4966067;28;20233;-62
2022/09/22 12:37:21;;;;;;;2.42;1.17;;;22.30;1.00;;;;;;4992390;28;20202;-62
2022/09/22 12:39:48;;;;;;;2.08;1.20;;;22.20;1.00;;;;;;4991833;28;20719;-62
2022/09/22 12:42:38;;;;;;;1.90;1.20;;;22.50;1.00;;;;;;4973634;28;20296;-63
2022/09/22 12:45:13;;;;;;;6.00;1.10;;;22.60;1.00;;;;;;4966294;28;20218;-62
2022/09/22 12:47:46;;;;;;;2.35;1.27;;;23.00;1.00;;;;;;4992084;28;20204;-62
2022/09/22 12:50:22;;;;;;;2.33;1.23;;;22.80;1.00;;;;;;4982232;28;20190;-60
2022/09/22 12:52:49;;;;;;;2.50;1.50;;;22.30;1.00;;;;;;4992204;28;20190;-63
2022/09/22 12:55:27;;;;;;;3.97;1.73;;;21.40;1.00;;;;;;4983093;28;20219;-62
2022/09/22 12:57:56;;;;;;;2.92;1.45;;;21.00;1.00;;;;;;4973578;28;20212;-63
2022/09/22 13:00:28;;;;;;;2.35;1.25;;;20.80;1.00;;;;;;4991957;28;20197;-61
2022/09/22 13:03:00;;;;;;;1.90;1.25;;;20.20;1.00;;;;;;4991504;28;20198;-62
2022/09/22 13:05:27;;;;;;;2.15;1.15;;;20.10;1.00;;;;;;4992010;28;20206;-63
2022/09/22 13:07:54;;;;;;;2.65;1.38;;;21.10;1.00;;;;;;4982250;28;20209;-62
2022/09/22 13:10:21;;;;;;;2.53;1.33;;;21.40;1.00;;;;;;4981820;28;20675;-62
2022/09/22 13:13:08;;;;;;;4.97;1.42;;;20.50;1.00;;;;;;4985497;28;20250;-61
2022/09/22 13:15:50;;;;;;;1.25;1.10;;;20.60;1.00;;;;;;4986258;28;20194;-62
2022/09/22 13:18:52;;;;;;;7.57;1.40;;;20.70;1.00;;;;;;4953713;28;20253;-62
2022/09/22 13:21:25;;;;;;;2.97;1.20;;;20.90;1.00;;;;;;4970207;28;20200;-62
2022/09/22 13:24:01;;;;;;;3.17;1.10;;;21.10;1.00;;;;;;4970552;28;20218;-62
2022/09/22 13:26:28;;;;;;;1.13;0.98;;;20.60;1.00;;;;;;4970461;28;20198;-61
2022/09/22 13:29:04;;;;;;;1.85;1.20;;;20.90;1.00;;;;;;4953349;28;20570;-62
2022/09/22 13:31:38;;;;;;;3.70;1.20;;;20.80;1.00;;;;;;4971274;28;20201;-62
2022/09/22 13:34:18;;;;;;;1.88;1.20;;;19.90;1.00;;;;;;4986047;28;20360;-62
2022/09/22 13:36:46;;;;;;;2.58;1.08;;;20.10;1.00;;;;;;4945103;28;20201;-62
2022/09/22 13:39:17;;;;;;;2.45;1.40;;;20.50;1.00;;;;;;4952888;28;20202;-62
2022/09/22 13:41:51;;;;;;;2.28;1.20;;;20.40;1.00;;;;;;4947349;28;20208;-61
2022/09/22 13:44:24;;;;;;;2.55;1.40;;;20.40;1.00;;;;;;4953000;28;20229;-61
2022/09/22 13:46:52;;;;;;;3.72;1.20;;;20.60;1.00;;;;;;4971340;28;20277;-61
2022/09/22 13:49:25;;;;;;;2.47;1.27;;;20.50;1.00;;;;;;4985169;28;20762;-62
2022/09/22 13:51:56;;;;;;;2.42;1.60;;;19.80;1.00;;;;;;4970226;28;20195;-62